Time;durP1;ratioP1;P1;durP2;ratioP2;P2;SDS_P1;SDS_P2;PMS_P1;PMS_P2;Temp;Humidity;BMP_temperature;BMP_pressure;BME280_temperature;BME280_humidity;BME280_pressure;Samples;Min_cycle;Max_cycle;Signal;HPM_P1;HPM_P2
2022/05/10 00:01:40;;;;;;;7.47;6.68;;;;;;;13.77;68.65;100772.06;5051780;28;20480;-65
2022/05/10 00:04:09;;;;;;;7.10;6.40;;;;;;;13.73;68.63;100762.69;5051815;28;20065;-65
2022/05/10 00:06:39;;;;;;;9.57;7.00;;;;;;;13.70;68.92;100766.13;5054626;28;20048;-65
2022/05/10 00:09:08;;;;;;;7.07;6.32;;;;;;;13.66;68.63;100765.13;5051657;28;20056;-65
2022/05/10 00:11:36;;;;;;;7.07;6.38;;;;;;;13.65;68.90;100762.66;5051434;28;20056;-65
2022/05/10 00:14:04;;;;;;;7.07;6.38;;;;;;;13.62;68.70;100757.72;5051173;28;20060;-65
2022/05/10 00:16:34;;;;;;;8.18;6.13;;;;;;;13.56;68.98;100755.06;5051453;28;20060;-65
2022/05/10 00:19:01;;;;;;;8.32;6.30;;;;;;;13.51;68.62;100755.22;5051593;28;20049;-65
2022/05/10 00:21:29;;;;;;;8.60;6.82;;;;;;;13.45;68.74;100750.13;5053507;28;20045;-65
2022/05/10 00:23:56;;;;;;;8.18;6.80;;;;;;;13.40;69.00;100745.50;5051046;28;20060;-65
2022/05/10 00:26:24;;;;;;;6.93;6.22;;;;;;;13.42;69.16;100747.97;5050973;28;20053;-65
2022/05/10 00:28:51;;;;;;;7.35;6.47;;;;;;;13.37;69.10;100744.16;5051670;28;20052;-64
2022/05/10 00:31:20;;;;;;;7.43;6.72;;;;;;;13.38;69.57;100742.22;5051161;28;20492;-65
2022/05/10 00:33:47;;;;;;;7.60;6.90;;;;;;;13.36;69.48;100739.75;5033899;28;20053;-65
2022/05/10 00:36:17;;;;;;;8.15;7.15;;;;;;;13.36;69.64;100734.16;5071491;28;21000;-65
2022/05/10 00:38:45;;;;;;;7.57;6.80;;;;;;;13.34;69.79;100736.44;5052749;28;20508;-65
2022/05/10 00:41:17;;;;;;;7.35;6.57;;;;;;;13.32;69.64;100735.94;5051165;28;20056;-65
2022/05/10 00:43:50;;;;;;;8.40;6.40;;;;;;;13.33;69.27;100740.41;5051427;28;20052;-65
2022/05/10 00:46:23;;;;;;;7.75;6.43;;;;;;;13.32;69.69;100737.94;5051489;28;20436;-65
2022/05/10 00:48:59;;;;;;;8.00;7.28;;;;;;;13.31;69.56;100731.53;5054592;28;20505;-65
2022/05/10 00:51:48;;;;;;;7.53;6.47;;;;;;;13.30;70.20;100731.84;5064375;28;20067;-65
2022/05/10 00:54:27;;;;;;;9.73;6.90;;;;;;;13.28;69.84;100734.09;5051592;28;20056;-65
2022/05/10 00:57:04;;;;;;;7.90;7.18;;;;;;;13.25;69.81;100737.53;5051237;28;20406;-65
2022/05/10 00:59:37;;;;;;;7.90;6.97;;;;;;;13.23;69.85;100739.84;5046797;28;20064;-65
2022/05/10 01:02:22;;;;;;;7.40;6.70;;;;;;;13.20;70.00;100747.72;5050803;28;20059;-64
2022/05/10 01:04:53;;;;;;;8.25;6.53;;;;;;;13.17;69.72;100730.78;5047002;28;20045;-65
2022/05/10 01:07:28;;;;;;;7.78;6.82;;;;;;;13.10;69.73;100736.88;5050841;28;20049;-65
2022/05/10 01:10:00;;;;;;;8.25;6.68;;;;;;;13.06;70.20;100729.44;5031169;28;20382;-65
2022/05/10 01:12:34;;;;;;;9.77;7.13;;;;;;;12.96;70.78;100719.38;5038908;28;20404;-65
2022/05/10 01:15:05;;;;;;;8.00;7.03;;;;;;;12.93;70.55;100715.25;5052244;28;20053;-65
2022/05/10 01:17:35;;;;;;;11.07;7.45;;;;;;;12.94;70.56;100711.31;5051113;28;20072;-65
2022/05/10 01:20:04;;;;;;;7.68;6.90;;;;;;;12.94;70.72;100722.50;5051032;28;20052;-65
2022/05/10 01:22:57;;;;;;;8.00;7.25;;;;;;;12.95;70.50;100718.53;5051057;28;20052;-65
2022/05/10 01:25:41;;;;;;;9.32;7.43;;;;;;;12.96;70.84;100723.00;5051545;28;20060;-65
2022/05/10 01:28:20;;;;;;;8.45;7.60;;;;;;;12.95;70.57;100712.94;5052906;28;20048;-65
2022/05/10 01:30:48;;;;;;;9.10;7.78;;;;;;;12.92;70.65;100719.22;5051273;28;20052;-65
2022/05/10 01:33:30;;;;;;;9.07;7.82;;;;;;;12.92;71.01;100722.00;5051004;28;20485;-65
2022/05/10 01:36:10;;;;;;;8.38;7.38;;;;;;;12.94;70.81;100716.91;5033651;28;20068;-65
2022/05/10 01:38:45;;;;;;;10.45;7.95;;;;;;;12.96;71.29;100711.00;5049406;28;20370;-65
2022/05/10 01:41:19;;;;;;;8.82;7.93;;;;;;;12.99;71.15;100707.53;5054420;28;20060;-65
2022/05/10 01:43:52;;;;;;;9.88;8.23;;;;;;;13.00;70.89;100710.03;5063914;28;20510;-65
2022/05/10 01:46:24;;;;;;;9.43;8.35;;;;;;;13.02;71.22;100700.47;5054380;28;20496;-65
2022/05/10 01:48:58;;;;;;;9.93;8.45;;;;;;;13.03;71.54;100702.13;5054296;28;20060;-64
2022/05/10 01:51:32;;;;;;;9.07;7.93;;;;;;;13.05;71.48;100697.84;5058989;28;20067;-64
2022/05/10 01:54:00;;;;;;;8.90;7.40;;;;;;;13.05;71.71;100695.06;5060291;28;20060;-64
2022/05/10 01:56:30;;;;;;;10.40;8.73;;;;;;;13.08;71.35;100693.56;5053787;28;20063;-64
2022/05/10 01:58:59;;;;;;;10.07;9.18;;;;;;;13.08;71.50;100687.97;5053995;28;20497;-64
2022/05/10 02:01:32;;;;;;;8.10;7.30;;;;;;;13.08;71.32;100688.84;5053515;28;20045;-64
2022/05/10 02:04:05;;;;;;;9.75;8.05;;;;;;;13.08;71.53;100674.00;5057905;28;20061;-64
2022/05/10 02:06:36;;;;;;;7.93;7.18;;;;;;;13.10;71.14;100685.69;5054601;28;20405;-64
2022/05/10 02:09:11;;;;;;;8.68;7.70;;;;;;;13.08;71.71;100671.22;5052719;28;20049;-64
2022/05/10 02:11:42;;;;;;;9.25;7.43;;;;;;;13.07;71.55;100675.16;5053667;28;20409;-64
2022/05/10 02:14:18;;;;;;;8.07;7.28;;;;;;;13.07;71.09;100675.16;5053532;28;20064;-64
2022/05/10 02:16:50;;;;;;;9.68;8.48;;;;;;;13.06;71.01;100679.94;5054051;28;20064;-64
2022/05/10 02:19:25;;;;;;;8.93;7.80;;;;;;;13.03;71.03;100671.38;5052987;28;20056;-64
2022/05/10 02:21:56;;;;;;;8.38;7.43;;;;;;;13.03;71.07;100671.38;5041504;28;20053;-64
2022/05/10 02:24:29;;;;;;;8.93;7.28;;;;;;;13.02;71.32;100683.69;5053552;28;20041;-64
2022/05/10 02:26:59;;;;;;;9.23;8.25;;;;;;;12.92;71.06;100674.47;5053642;28;20053;-64
2022/05/10 02:29:32;;;;;;;11.32;7.88;;;;;;;12.84;70.86;100678.06;5053497;28;20074;-64
2022/05/10 02:35:08;;;;;;;8.75;7.93;;;;;;;12.73;71.04;100671.97;4993828;28;20080;-64
2022/05/10 02:37:35;;;;;;;8.77;7.88;;;;;;;12.73;71.07;100674.75;4992646;28;20058;-64
2022/05/10 02:40:04;;;;;;;9.00;7.63;;;;;;;12.75;71.09;100669.66;5019546;28;20447;-64
2022/05/10 02:42:31;;;;;;;8.20;7.40;;;;;;;12.77;70.95;100677.72;5050497;28;20052;-64
2022/05/10 02:45:01;;;;;;;8.52;7.38;;;;;;;12.79;70.82;100669.84;5053593;28;20049;-64
2022/05/10 02:47:30;;;;;;;;;;;;;;;12.74;71.35;100672.78;5052717;28;20053;-64
2022/05/10 02:49:58;;;;;;;8.93;7.03;;;;;;;12.78;71.23;100673.78;5053039;28;19921;-64
2022/05/10 02:52:25;;;;;;;7.88;7.13;;;;;;;12.78;70.84;100669.00;5046758;28;20053;-64
2022/05/10 02:54:55;;;;;;;7.90;7.10;;;;;;;12.83;70.99;100676.44;5053606;28;20404;-64
2022/05/10 02:57:24;;;;;;;8.82;7.60;;;;;;;12.78;70.74;100671.78;5052705;28;20469;-64
2022/05/10 02:59:55;;;;;;;8.63;7.20;;;;;;;12.81;71.03;100675.94;5052923;28;20060;-64
2022/05/10 03:02:31;;;;;;;8.13;7.32;;;;;;;12.83;70.91;100665.25;5052917;28;20045;-64
2022/05/10 03:04:59;;;;;;;7.72;7.03;;;;;;;12.82;70.80;100674.78;5054334;28;20389;-64
2022/05/10 03:07:28;;;;;;;8.80;7.97;;;;;;;12.83;70.82;100665.25;5052554;28;20052;-64
2022/05/10 03:09:56;;;;;;;9.00;8.00;;;;;;;12.85;70.82;100654.56;5052885;28;20053;-64
2022/05/10 03:12:24;;;;;;;8.40;7.60;;;;;;;12.86;70.88;100663.78;5052472;28;20041;-64
2022/05/10 03:14:51;;;;;;;8.75;7.95;;;;;;;12.83;71.02;100656.03;5052797;28;20478;-64
2022/05/10 03:17:18;;;;;;;10.80;7.95;;;;;;;12.78;71.11;100643.03;5052686;28;20376;-64
2022/05/10 03:19:47;;;;;;;8.82;8.02;;;;;;;12.77;71.45;100638.59;5053944;28;20060;-65
2022/05/10 03:22:15;;;;;;;9.15;8.35;;;;;;;12.75;71.54;100643.69;5052547;28;20053;-64
2022/05/10 03:24:42;;;;;;;9.80;8.32;;;;;;;12.79;71.78;100644.69;5053067;28;20472;-65
2022/05/10 03:27:11;;;;;;;10.88;7.93;;;;;;;12.85;71.40;100636.94;5052052;28;20048;-64
2022/05/10 03:29:39;;;;;;;8.75;7.93;;;;;;;12.88;71.48;100639.94;5052603;28;20457;-64
2022/05/10 03:32:07;;;;;;;9.15;8.23;;;;;;;12.91;71.43;100638.44;5052461;28;20412;-65
2022/05/10 03:37:21;;;;;;;9.63;8.13;;;;;;;12.93;71.41;100636.97;5058311;28;20127;-65
2022/05/10 03:39:49;;;;;;;10.63;8.80;;;;;;;12.95;71.29;100639.44;5032657;28;20409;-65
2022/05/10 03:42:16;;;;;;;9.02;8.05;;;;;;;12.94;71.11;100632.22;5052611;28;20079;-65
2022/05/10 03:44:43;;;;;;;8.85;8.05;;;;;;;12.94;71.13;100638.63;5052668;28;20048;-65
2022/05/10 03:47:11;;;;;;;10.88;8.45;;;;;;;12.97;71.30;100637.97;5052068;28;20477;-65
2022/05/10 03:49:38;;;;;;;11.52;8.18;;;;;;;13.00;71.01;100637.31;5050929;28;20053;-65
2022/05/10 03:52:06;;;;;;;8.32;7.47;;;;;;;13.03;70.75;100640.63;5052488;28;20060;-65
2022/05/10 03:54:34;;;;;;;10.10;8.18;;;;;;;13.06;71.04;100639.94;5051597;28;20053;-65
2022/05/10 03:57:02;;;;;;;9.00;8.18;;;;;;;13.07;70.73;100641.59;5050696;28;20052;-65
2022/05/10 03:59:29;;;;;;;8.73;7.82;;;;;;;13.01;70.67;100643.72;5051002;28;20400;-65
2022/05/10 04:01:58;;;;;;;9.25;7.57;;;;;;;12.96;70.22;100641.91;5051819;28;20580;-65
2022/05/10 04:04:26;;;;;;;8.60;7.70;;;;;;;12.88;70.55;100627.94;5052817;28;20053;-65
2022/05/10 04:06:53;;;;;;;9.93;8.10;;;;;;;12.94;70.68;100632.22;5051491;28;20055;-65
2022/05/10 04:09:20;;;;;;;10.75;7.97;;;;;;;13.04;70.34;100631.91;5039414;28;20476;-65
2022/05/10 04:11:49;;;;;;;8.15;7.22;;;;;;;13.13;70.20;100629.94;5052233;28;20060;-65
2022/05/10 04:14:17;;;;;;;10.05;7.68;;;;;;;13.25;70.23;100632.09;5051659;28;20088;-65
2022/05/10 04:16:44;;;;;;;8.88;7.95;;;;;;;13.33;69.61;100636.91;5064292;28;20409;-65
2022/05/10 04:19:14;;;;;;;9.00;8.18;;;;;;;13.42;69.50;100627.66;5050956;28;20072;-65
2022/05/10 04:21:41;;;;;;;;;;;;;;;13.40;69.27;100628.81;5052663;28;20053;-65
2022/05/10 04:24:10;;;;;;;8.45;7.40;;;;;;;13.48;69.40;100618.78;5051549;28;19927;-65
2022/05/10 04:26:37;;;;;;;8.63;7.70;;;;;;;13.55;69.34;100618.28;5051187;28;20060;-65
2022/05/10 04:29:06;;;;;;;8.15;6.97;;;;;;;13.64;69.07;100621.88;5049291;28;20061;-65
2022/05/10 04:31:33;;;;;;;7.78;6.32;;;;;;;13.73;68.68;100622.69;5047393;28;20053;-65
2022/05/10 04:34:01;;;;;;;8.43;7.00;;;;;;;13.88;68.17;100620.50;5048433;28;20053;-65
2022/05/10 04:36:28;;;;;;;7.90;7.20;;;;;;;13.98;68.22;100620.16;5048548;28;20056;-65
2022/05/10 04:38:56;;;;;;;7.28;6.55;;;;;;;14.10;67.97;100611.88;5047746;28;20063;-65
2022/05/10 04:41:25;;;;;;;8.10;6.70;;;;;;;14.25;67.50;100615.28;5062436;28;20515;-65
2022/05/10 04:43:53;;;;;;;7.78;6.97;;;;;;;14.34;67.24;100616.91;5048691;28;20065;-65
2022/05/10 04:46:22;;;;;;;8.63;6.97;;;;;;;14.41;66.80;100621.97;5049913;28;20053;-65
2022/05/10 04:48:49;;;;;;;8.00;7.20;;;;;;;14.51;66.41;100629.16;5051447;28;20405;-65
2022/05/10 04:51:16;;;;;;;7.70;6.80;;;;;;;14.55;65.83;100630.13;5050873;28;20061;-65
2022/05/10 04:53:44;;;;;;;7.72;7.03;;;;;;;14.57;65.43;100623.09;5050915;28;20049;-65
2022/05/10 04:56:11;;;;;;;10.57;8.32;;;;;;;14.64;65.32;100627.34;5048848;28;20057;-65
2022/05/10 04:58:38;;;;;;;7.63;6.88;;;;;;;14.70;65.16;100620.34;5053764;28;20057;-65
2022/05/10 05:01:08;;;;;;;7.63;6.88;;;;;;;14.78;64.84;100623.13;5050602;28;20064;-65
2022/05/10 05:03:37;;;;;;;8.07;7.25;;;;;;;14.87;64.96;100622.28;5054588;28;20079;-65
2022/05/10 05:06:04;;;;;;;7.32;6.65;;;;;;;14.93;64.78;100627.34;5042342;28;20398;-65
2022/05/10 05:08:32;;;;;;;8.75;7.85;;;;;;;15.00;64.56;100624.78;5047216;28;20057;-65
2022/05/10 05:10:59;;;;;;;7.60;6.80;;;;;;;15.06;64.59;100633.03;5055888;28;20056;-65
2022/05/10 05:13:27;;;;;;;8.82;7.82;;;;;;;15.17;64.39;100637.06;5053146;28;20481;-65
2022/05/10 05:15:54;;;;;;;8.10;7.30;;;;;;;15.24;64.06;100631.72;5055544;28;20060;-65
2022/05/10 05:18:22;;;;;;;8.27;7.47;;;;;;;15.34;64.08;100636.09;5053115;28;20055;-65
2022/05/10 05:20:52;;;;;;;7.75;6.70;;;;;;;15.40;64.34;100637.53;5054851;28;20490;-65
2022/05/10 05:23:23;;;;;;;10.40;7.10;;;;;;;15.38;64.22;100631.44;5055183;28;20381;-65
2022/05/10 05:25:52;;;;;;;8.02;6.65;;;;;;;15.49;64.02;100638.28;5055798;28;20044;-65
2022/05/10 05:28:20;;;;;;;7.03;5.88;;;;;;;15.63;64.07;100644.44;5054920;28;20056;-66
2022/05/10 05:30:52;;;;;;;7.32;6.63;;;;;;;15.75;63.67;100637.25;5053162;28;20044;-65
2022/05/10 05:33:22;;;;;;;8.43;6.75;;;;;;;15.86;63.30;100637.66;5051330;28;20058;-65
2022/05/10 05:35:51;;;;;;;7.38;6.57;;;;;;;15.97;63.72;100638.84;5055008;28;20049;-65
2022/05/10 05:38:18;;;;;;;8.13;6.25;;;;;;;16.13;63.54;100645.44;5054227;28;20048;-65
2022/05/10 05:40:45;;;;;;;9.20;6.30;;;;;;;16.30;63.41;100643.59;5054790;28;20059;-65
2022/05/10 05:43:18;;;;;;;8.02;6.57;;;;;;;16.48;62.81;100650.63;5054592;28;20045;-65
2022/05/10 05:45:46;;;;;;;9.25;6.93;;;;;;;16.68;62.42;100642.47;5054503;28;20061;-65
2022/05/10 05:48:13;;;;;;;7.18;6.47;;;;;;;16.84;61.87;100638.63;5054880;28;20056;-65
2022/05/10 05:50:43;;;;;;;7.50;6.80;;;;;;;17.07;61.33;100631.66;5054568;28;20480;-65
2022/05/10 05:53:11;;;;;;;;;;;;;;;17.24;60.16;100637.03;5054983;28;20049;-65
2022/05/10 05:55:40;;;;;;;8.82;6.35;;;;;;;17.47;60.31;100642.94;5054251;28;19920;-65
2022/05/10 05:58:10;;;;;;;9.07;6.70;;;;;;;17.62;60.04;100630.91;5052892;28;20164;-65
2022/05/10 06:00:39;;;;;;;9.10;6.55;;;;;;;17.75;59.44;100634.47;5053380;28;20068;-65
2022/05/10 06:03:07;;;;;;;9.18;6.50;;;;;;;17.99;59.31;100627.09;5052775;28;20485;-65
2022/05/10 06:05:34;;;;;;;13.40;6.35;;;;;;;18.20;58.59;100624.84;5053888;28;20053;-65
2022/05/10 06:08:03;;;;;;;13.18;6.85;;;;;;;18.43;58.30;100629.88;5053422;28;20049;-65
2022/05/10 06:10:32;;;;;;;9.90;6.15;;;;;;;18.51;58.05;100625.22;5053710;28;20049;-65
2022/05/10 06:13:01;;;;;;;9.50;6.28;;;;;;;18.70;57.49;100628.13;5053905;28;20045;-65
2022/05/10 06:15:29;;;;;;;8.57;6.20;;;;;;;18.89;57.38;100624.56;5052941;28;20057;-65
2022/05/10 06:17:57;;;;;;;7.40;6.70;;;;;;;18.98;56.78;100628.03;5053316;28;20484;-65
2022/05/10 06:20:25;;;;;;;8.93;6.82;;;;;;;19.13;56.10;100623.53;5052837;28;20053;-66
2022/05/10 06:22:53;;;;;;;7.55;6.85;;;;;;;19.26;55.60;100624.19;5053306;28;20473;-65
2022/05/10 06:25:23;;;;;;;8.40;6.95;;;;;;;19.40;55.14;100621.69;5053405;28;20053;-65
2022/05/10 06:27:53;;;;;;;8.52;6.70;;;;;;;19.59;55.09;100620.03;5053787;28;20487;-65
2022/05/10 06:30:22;;;;;;;8.23;6.60;;;;;;;19.77;53.82;100626.91;5053086;28;20064;-66
2022/05/10 06:32:50;;;;;;;7.65;6.72;;;;;;;19.94;52.80;100619.16;5052814;28;20053;-66
2022/05/10 06:35:19;;;;;;;8.73;6.00;;;;;;;20.19;51.38;100611.94;5053164;28;20654;-65
2022/05/10 06:40:31;;;;;;;7.70;6.13;;;;;;;20.68;50.38;100614.03;5050636;28;20214;-61
2022/05/10 06:43:00;;;;;;;10.63;5.68;;;;;;;20.78;49.87;100612.53;5047275;28;20057;-60
2022/05/10 06:45:28;;;;;;;;;;;;;;;20.98;50.03;100604.75;5048345;28;20057;-60
2022/05/10 06:47:55;;;;;;;7.88;6.10;;;;;;;21.21;50.23;100601.03;5040619;28;19921;-62
2022/05/10 06:50:25;;;;;;;6.45;5.80;;;;;;;21.51;49.50;100591.72;5052442;28;20059;-61
2022/05/10 06:52:52;;;;;;;;;;;;;;;21.75;49.34;100599.69;5052781;28;20055;-61
2022/05/10 06:55:20;;;;;;;6.60;5.88;;;;;;;22.07;48.91;100590.72;5052568;28;19921;-62
2022/05/10 06:57:47;;;;;;;6.53;5.25;;;;;;;22.33;48.08;100584.09;5052326;28;20060;-62
2022/05/10 07:00:17;;;;;;;7.80;5.72;;;;;;;22.62;47.93;100585.13;5050060;28;20069;-62
2022/05/10 07:02:45;;;;;;;6.57;5.75;;;;;;;22.90;47.36;100583.69;5051176;28;20064;-62
2022/05/10 07:05:15;;;;;;;5.25;4.43;;;;;;;23.27;46.44;100574.19;5051710;28;20049;-62
2022/05/10 07:07:43;;;;;;;5.97;5.38;;;;;;;23.60;46.39;100572.25;5051478;28;20057;-62
2022/05/10 07:10:12;;;;;;;6.13;4.97;;;;;;;23.84;45.88;100577.25;5052310;28;20053;-62
2022/05/10 07:12:40;;;;;;;7.22;4.90;;;;;;;24.03;45.89;100567.53;5051899;28;20045;-62
2022/05/10 07:15:11;;;;;;;8.30;5.22;;;;;;;24.26;45.15;100569.97;5053560;28;20052;-62
2022/05/10 07:17:42;;;;;;;7.30;4.32;;;;;;;24.51;44.83;100569.19;5051761;28;20057;-62
2022/05/10 07:20:12;;;;;;;9.18;4.57;;;;;;;24.76;43.57;100568.34;5052727;28;20044;-62
2022/05/10 07:22:40;;;;;;;4.97;4.40;;;;;;;24.86;42.17;100565.50;5050960;28;20048;-62
2022/05/10 07:25:09;;;;;;;4.82;4.32;;;;;;;24.81;39.73;100567.94;5052075;28;20049;-62
2022/05/10 07:27:36;;;;;;;4.82;3.78;;;;;;;25.04;39.32;100570.31;5049149;28;20049;-62
2022/05/10 07:30:04;;;;;;;6.30;4.15;;;;;;;25.19;37.95;100562.53;5065272;28;20503;-62
2022/05/10 07:32:31;;;;;;;5.40;4.07;;;;;;;25.46;38.42;100548.59;5050674;28;20044;-62
2022/05/10 07:35:01;;;;;;;4.50;3.58;;;;;;;25.57;37.56;100557.09;5051362;28;20060;-61
2022/05/10 07:37:29;;;;;;;4.95;3.88;;;;;;;25.87;37.03;100543.06;5050463;28;20501;-62
2022/05/10 07:39:57;;;;;;;5.68;4.60;;;;;;;26.49;36.33;100549.13;5049940;28;20061;-62
2022/05/10 07:42:25;;;;;;;6.05;3.90;;;;;;;26.49;35.91;100554.84;5051196;28;20057;-62
2022/05/10 07:44:52;;;;;;;6.18;4.22;;;;;;;26.39;36.15;100550.81;5051691;28;20044;-62
2022/05/10 07:47:20;;;;;;;7.03;4.03;;;;;;;27.17;34.28;100553.31;5051291;28;20057;-61
2022/05/10 07:49:47;;;;;;;4.90;3.60;;;;;;;27.33;34.62;100544.97;5050447;28;20048;-62
2022/05/10 07:52:16;;;;;;;4.28;3.78;;;;;;;27.51;33.78;100539.84;5050926;28;20052;-62
2022/05/10 07:54:44;;;;;;;4.55;3.42;;;;;;;27.93;32.68;100534.75;5047562;28;20041;-62
2022/05/10 07:57:12;;;;;;;4.67;3.60;;;;;;;28.50;32.27;100535.88;5050487;28;20052;-62
2022/05/10 07:59:39;;;;;;;6.90;3.90;;;;;;;29.73;30.05;100531.38;5046486;28;20494;-62
2022/05/10 08:02:08;;;;;;;;;;;;;;;30.71;28.83;100530.59;5050308;28;20437;-62
2022/05/10 08:04:35;;;;;;;5.55;4.00;;;;;;;31.10;27.71;100523.75;5050354;28;19921;-62
2022/05/10 08:07:03;;;;;;;5.75;3.72;;;;;;;31.32;27.40;100526.00;5046658;28;20057;-62
2022/05/10 08:09:33;;;;;;;4.22;3.75;;;;;;;31.71;27.12;100524.81;5047052;28;20056;-62
2022/05/10 08:12:00;;;;;;;5.47;3.75;;;;;;;32.01;27.00;100524.75;5050776;28;20068;-62
2022/05/10 08:14:28;;;;;;;3.85;3.42;;;;;;;33.05;25.64;100524.78;5050683;28;20426;-62
2022/05/10 08:16:55;;;;;;;4.55;3.42;;;;;;;33.43;24.68;100520.91;5050399;28;20060;-62
2022/05/10 08:19:22;;;;;;;4.78;3.33;;;;;;;32.91;24.96;100513.78;5050500;28;20052;-62
2022/05/10 08:21:52;;;;;;;3.72;3.38;;;;;;;33.55;24.20;100513.44;5050240;28;20049;-62
2022/05/10 08:24:20;;;;;;;3.97;3.42;;;;;;;33.42;24.24;100512.72;5050664;28;20053;-62
2022/05/10 08:26:51;;;;;;;7.00;3.30;;;;;;;32.71;25.16;100514.09;5050730;28;20056;-62
2022/05/10 08:29:18;;;;;;;3.78;3.03;;;;;;;32.04;25.40;100510.19;5050947;28;20053;-62
2022/05/10 08:31:45;;;;;;;5.15;3.20;;;;;;;32.13;25.53;100527.59;5050860;28;20049;-62
2022/05/10 08:34:13;;;;;;;4.13;3.15;;;;;;;32.23;25.37;100516.97;5051101;28;20048;-62
2022/05/10 08:36:41;;;;;;;4.18;3.50;;;;;;;32.81;24.73;100504.25;5051391;28;20053;-62
2022/05/10 08:39:08;;;;;;;6.05;3.22;;;;;;;33.73;24.00;100507.78;5048574;28;20450;-62
2022/05/10 08:41:46;;;;;;;4.22;3.50;;;;;;;34.08;23.38;100506.75;5049425;28;20406;-62
2022/05/10 08:44:17;;;;;;;4.00;3.10;;;;;;;34.18;23.01;100502.63;5051439;28;20480;-62
2022/05/10 08:46:46;;;;;;;3.75;3.40;;;;;;;33.95;23.33;100504.00;5057866;28;20049;-63
2022/05/10 08:49:18;;;;;;;3.40;3.08;;;;;;;33.85;22.81;100502.34;5057091;28;20048;-63
2022/05/10 08:51:47;;;;;;;3.78;3.40;;;;;;;32.87;23.72;100502.38;5054406;28;20053;-63
2022/05/10 08:54:14;;;;;;;4.85;3.20;;;;;;;32.83;23.90;100500.91;5054120;28;20053;-63
2022/05/10 08:56:46;;;;;;;5.82;3.30;;;;;;;32.71;24.55;100503.34;5053565;28;20508;-62
2022/05/10 08:59:33;;;;;;;3.97;3.10;;;;;;;32.35;24.58;100495.94;5052901;28;20064;-63
2022/05/10 09:02:05;;;;;;;4.43;3.30;;;;;;;32.38;24.82;100488.44;5051336;28;20057;-62
2022/05/10 09:04:45;;;;;;;4.22;3.15;;;;;;;34.75;22.71;100485.72;5055562;28;20072;-62
2022/05/10 09:07:30;;;;;;;5.88;3.42;;;;;;;33.46;21.81;100493.97;5054656;28;20067;-62
2022/05/10 09:10:05;;;;;;;4.00;2.95;;;;;;;33.31;22.38;100495.81;5068813;28;20060;-62
2022/05/10 09:12:42;;;;;;;3.80;2.65;;;;;;;33.64;21.62;100492.47;5054857;28;20516;-62
2022/05/10 09:15:13;;;;;;;3.97;3.10;;;;;;;34.01;21.00;100499.19;5055112;28;20055;-62
2022/05/10 09:17:41;;;;;;;4.28;3.00;;;;;;;34.57;20.71;100482.78;5054295;28;20055;-62
2022/05/10 09:20:11;;;;;;;4.37;3.20;;;;;;;34.61;20.04;100489.22;5055053;28;20449;-62
2022/05/10 09:22:57;;;;;;;3.75;2.92;;;;;;;35.96;20.00;100474.63;5053923;28;20467;-62
2022/05/10 09:25:31;;;;;;;6.85;2.90;;;;;;;36.49;18.83;100476.84;5051855;28;20138;-62
2022/05/10 09:28:02;;;;;;;4.95;3.17;;;;;;;37.54;17.79;100484.41;5054237;28;20052;-63
2022/05/10 09:30:34;;;;;;;4.72;3.30;;;;;;;37.80;17.23;100488.81;5054692;28;20055;-63
2022/05/10 09:36:06;;;;;;;3.28;2.90;;;;;;;39.02;16.30;100467.72;5054779;28;20068;-62
2022/05/10 09:38:43;;;;;;;4.28;2.72;;;;;;;38.54;16.56;100463.19;5061899;28;20056;-63
2022/05/10 09:41:26;;;;;;;4.63;3.10;;;;;;;39.36;16.18;100453.47;5066703;28;20048;-63
2022/05/10 09:43:55;;;;;;;3.58;3.00;;;;;;;39.66;15.63;100450.28;5054643;28;20057;-63
2022/05/10 09:46:29;;;;;;;3.35;2.90;;;;;;;39.68;16.26;100450.56;5053838;28;20507;-63
2022/05/10 09:48:59;;;;;;;3.38;3.08;;;;;;;40.49;15.21;100465.88;5054268;28;20056;-62
2022/05/10 09:51:36;;;;;;;3.50;2.63;;;;;;;40.71;14.80;100441.81;5054083;28;20060;-63
2022/05/10 09:54:07;;;;;;;5.53;3.13;;;;;;;40.18;15.03;100447.16;5053200;28;20071;-63
2022/05/10 09:56:38;;;;;;;6.85;3.47;;;;;;;38.71;15.74;100440.09;5054487;28;20060;-63
2022/05/10 09:59:27;;;;;;;4.60;2.97;;;;;;;39.01;15.44;100448.63;5034556;28;20068;-63
2022/05/10 10:01:58;;;;;;;6.15;3.30;;;;;;;35.26;18.67;100448.63;5058039;28;20041;-63
2022/05/10 10:04:31;;;;;;;4.43;2.95;;;;;;;35.20;19.02;100459.31;5054413;28;20067;-63
2022/05/10 10:07:13;;;;;;;4.28;2.92;;;;;;;35.76;19.03;100444.13;5053848;28;20056;-63
2022/05/10 10:09:42;;;;;;;3.83;2.92;;;;;;;35.11;19.20;100443.53;5033888;28;20165;-62
2022/05/10 10:12:16;;;;;;;3.70;2.70;;;;;;;34.28;20.11;100446.44;5052646;28;20511;-62
2022/05/10 10:14:47;;;;;;;4.57;3.05;;;;;;;34.15;20.39;100440.00;5053723;28;20138;-62
2022/05/10 10:17:23;;;;;;;4.55;3.08;;;;;;;33.88;20.75;100449.41;5063577;28;20055;-62
2022/05/10 10:19:55;;;;;;;5.65;3.15;;;;;;;34.91;20.17;100437.44;5034012;28;20433;-62
2022/05/10 10:22:30;;;;;;;4.28;3.28;;;;;;;36.00;18.88;100433.84;5051549;28;20497;-62
2022/05/10 10:25:05;;;;;;;3.78;2.95;;;;;;;36.46;18.23;100431.44;5034043;28;20057;-63
2022/05/10 10:27:38;;;;;;;4.10;3.28;;;;;;;38.67;16.49;100422.06;5052270;28;20057;-62
2022/05/10 10:30:12;;;;;;;3.60;3.30;;;;;;;39.26;15.92;100422.91;5033910;28;20367;-62
2022/05/10 10:32:45;;;;;;;4.07;3.00;;;;;;;38.99;17.00;100433.78;5066588;28;20059;-62
2022/05/10 10:35:19;;;;;;;4.10;2.97;;;;;;;39.42;15.79;100427.28;5053444;28;20469;-62
2022/05/10 10:37:50;;;;;;;3.10;2.80;;;;;;;38.12;16.76;100415.03;5053391;28;20053;-62
2022/05/10 10:40:31;;;;;;;5.00;2.70;;;;;;;36.81;18.19;100427.13;5053682;28;20060;-62
2022/05/10 10:43:07;;;;;;;4.57;2.83;;;;;;;36.35;17.22;100426.22;5053268;28;20053;-62
2022/05/10 10:45:40;;;;;;;3.65;2.47;;;;;;;36.93;17.29;100426.03;5052572;28;20056;-62
2022/05/10 10:48:21;;;;;;;3.50;2.70;;;;;;;37.70;16.58;100427.09;5053354;28;20044;-63
2022/05/10 10:50:48;;;;;;;6.75;2.78;;;;;;;37.13;16.06;100420.34;5072494;28;20169;-62
2022/05/10 10:53:15;;;;;;;4.43;2.73;;;;;;;38.70;15.60;100402.75;5056202;28;20049;-62
2022/05/10 10:56:07;;;;;;;4.25;2.70;;;;;;;39.82;14.36;100417.50;5053155;28;20057;-62
2022/05/10 10:58:48;;;;;;;3.17;2.53;;;;;;;38.60;15.76;100402.13;5050343;28;20057;-62
2022/05/10 11:01:32;;;;;;;3.85;2.53;;;;;;;37.98;16.58;100401.31;5033445;28;20512;-62
2022/05/10 11:04:16;;;;;;;4.85;2.80;;;;;;;36.82;17.53;100406.31;5042994;28;20500;-62
2022/05/10 11:06:50;;;;;;;3.67;2.80;;;;;;;36.98;16.99;100402.91;5052304;28;20420;-62
2022/05/10 11:09:38;;;;;;;4.28;2.97;;;;;;;38.17;16.56;100404.75;5064029;28;20052;-62
2022/05/10 11:12:24;;;;;;;4.30;2.83;;;;;;;39.58;14.87;100383.72;5070769;28;20057;-62
2022/05/10 11:15:03;;;;;;;3.28;2.75;;;;;;;38.81;15.99;100384.59;5058026;28;20053;-62
2022/05/10 11:17:43;;;;;;;5.05;2.85;;;;;;;38.07;16.76;100382.94;5052984;28;20059;-62
2022/05/10 11:20:22;;;;;;;3.92;2.80;;;;;;;36.94;17.47;100379.06;5055016;28;20060;-62
2022/05/10 11:22:57;;;;;;;4.90;3.22;;;;;;;35.50;17.59;100377.09;5052471;28;20056;-62
2022/05/10 11:25:42;;;;;;;4.43;3.25;;;;;;;34.28;18.75;100367.56;5069141;28;20056;-62
2022/05/10 11:28:29;;;;;;;5.53;2.80;;;;;;;33.61;20.03;100372.13;5066242;28;20053;-62
2022/05/10 11:31:05;;;;;;;5.57;3.65;;;;;;;33.25;20.28;100376.44;5072239;28;20052;-62
2022/05/10 11:33:44;;;;;;;3.65;3.00;;;;;;;33.45;20.90;100347.97;5063464;28;20412;-62
2022/05/10 11:36:23;;;;;;;5.00;3.33;;;;;;;32.50;21.74;100354.16;5043510;28;20048;-62
2022/05/10 11:39:32;;;;;;;5.28;3.42;;;;;;;32.67;21.61;100349.81;5061606;28;20072;-61
2022/05/10 11:42:07;;;;;;;;;;;;;;;32.68;21.76;100341.97;5033009;28;20489;-62
2022/05/10 11:45:01;;;;;;;4.28;3.17;;;;;;;32.88;21.94;100338.72;5049681;28;19927;-62
2022/05/10 11:48:00;;;;;;;5.15;3.53;;;;;;;32.70;22.37;100339.44;5056409;28;21853;-62
2022/05/10 11:51:38;;;;;;;;;;;;;;;32.67;22.66;100337.47;5068526;28;20053;-61
2022/05/10 11:54:07;;;;;;;4.93;3.42;;;;;;;32.43;22.71;100332.19;5069145;28;19928;-62
2022/05/10 11:56:38;;;;;;;3.63;3.00;;;;;;;32.25;22.88;100327.06;5069963;28;20048;-62
2022/05/10 11:59:10;;;;;;;3.80;3.25;;;;;;;32.24;23.20;100333.31;5066108;28;20060;-62